Latest Weather Observations for Hobart Airport

IDT60801

Issued at 7:21 am EST Sunday 14 August 2022 (issued every 10 minutes, with the page automatically refreshed every 10 minutes)

About weather observations | Map of weather stations | Latest weather observations for TAS | Other Formats
Station Details ID: 094250 Name: HOBART AIRPORT Lat: -42.83 Lon: 147.51 Height: 2.2 m
Data from the previous 72 hours. | See also: Recent months for locations in Tasmania
Date/Time
EST
Temp
°C
App
Temp
°C
Dew
Point
°C
Rel
Hum
%
Delta-T
°C
Wind Press
QNH
hPa
Press
MSL
hPa
Rain since
9am
mm
Dir  Spd
km/h
Gust
km/h
Spd
kts
Gust
kts
14/07:00am 11.1 5.0 10.3 95 0.4 SSE 33 44 18 24 1003.5 1003.5 20.0
14/06:30am 10.9 5.7 10.4 97 0.3 SSE 28 43 15 23 1004.0 1004.0 18.2
14/06:00am 10.8 5.2 10.2 96 0.3 SSE 30 43 16 23 1004.6 1004.6 16.2
14/05:55am 10.9 5.7 10.3 96 0.3 SSE 28 37 15 20 1004.7 1004.7 15.8
14/05:30am 11.1 5.1 10.2 94 0.5 SSE 32 44 17 24 1005.1 1005.1 14.0
14/05:00am 10.9 5.0 10.3 96 0.3 SE 32 41 17 22 1005.7 1005.7 12.2
14/04:45am 10.9 4.3 10.1 95 0.4 SSE 35 44 19 24 1005.9 1005.9 11.4
14/04:30am 10.8 5.2 10.2 96 0.3 SSE 30 43 16 23 1006.1 1006.1 11.0
14/04:14am 10.9 5.3 10.1 95 0.4 SSE 30 39 16 21 1006.5 1006.5 10.2
14/04:00am 10.9 5.3 10.1 95 0.4 SSE 30 39 16 21 1006.6 1006.6 9.8
14/03:47am 10.9 4.7 10.1 95 0.4 SSE 33 43 18 23 1007.0 1007.0 9.6
14/03:30am 10.9 4.9 10.1 95 0.4 SE 32 39 17 21 1007.4 1007.4 9.4
14/03:29am 10.9 4.9 10.1 95 0.4 SE 32 39 17 21 1007.4 1007.4 9.4
14/03:00am 10.8 5.6 10.2 96 0.3 SE 28 35 15 19 1008.1 1008.1 8.6
14/02:30am 10.9 6.1 10.3 96 0.3 SE 26 32 14 17 1008.8 1008.8 7.6
14/02:00am 10.8 5.6 10.3 97 0.3 SE 28 37 15 20 1009.4 1009.4 6.8
14/01:30am 10.9 5.7 10.4 97 0.3 SSE 28 37 15 20 1009.9 1009.9 5.8
14/01:17am 10.9 6.2 10.6 98 0.2 SSE 26 33 14 18 1010.2 1010.2 5.4
14/01:06am 10.9 5.8 10.6 98 0.2 SSE 28 35 15 19 1010.3 1010.3 5.0
14/01:00am 10.8 5.6 10.3 97 0.3 SSE 28 37 15 20 1010.5 1010.5 4.8
14/12:31am 10.9 6.2 10.6 98 0.2 SSE 26 33 14 18 1011.0 1011.0 4.6
14/12:30am 10.9 6.2 10.6 98 0.2 SSE 26 33 14 18 1011.0 1011.0 4.6
14/12:11am 11.0 5.9 10.5 97 0.3 SSE 28 33 15 18 1011.3 1011.3 4.6
14/12:00am 11.0 5.9 10.7 98 0.2 SSE 28 35 15 19 1011.4 1011.4 4.4
 
Date/Time
EST
Temp
°C
App
Temp
°C
Dew
Point
°C
Rel
Hum
%
Delta-T
°C
Wind Press
QNH
hPa
Press
MSL
hPa
Rain since
9am
mm
Dir  Spd
km/h
Gust
km/h
Spd
kts
Gust
kts
13/11:48pm 11.0 5.9 10.7 98 0.2 SSE 28 35 15 19 1011.6 1011.6 4.4
13/11:42pm 11.1 6.4 10.8 98 0.2 SSE 26 32 14 17 1011.6 1011.6 4.4
13/11:30pm 11.1 7.2 10.9 99 0.1 S 22 28 12 15 1011.8 1011.8 4.2
13/11:06pm 11.4 7.5 10.9 97 0.3 SSE 22 30 12 16 1012.1 1012.1 3.8
13/11:00pm 11.5 7.6 10.9 96 0.3 SSE 22 30 12 16 1012.2 1012.2 3.8
13/10:32pm 11.3 7.4 10.7 96 0.3 S 22 28 12 15 1012.7 1012.7 3.8
13/10:30pm 11.4 7.5 10.8 96 0.3 S 22 28 12 15 1012.7 1012.7 3.8
13/10:20pm 11.3 7.7 10.7 96 0.3 SSE 20 26 11 14 1012.9 1012.9 3.8
13/10:14pm 11.4 7.8 10.6 95 0.4 SSE 20 26 11 14 1013.0 1013.0 3.6
13/10:02pm 11.3 7.9 10.4 94 0.5 S 19 26 10 14 1013.3 1013.3 3.6
13/10:00pm 11.3 7.9 10.4 94 0.5 S 19 26 10 14 1013.3 1013.3 3.6
13/09:30pm 11.5 7.8 10.2 92 0.7 S 20 24 11 13 1013.9 1013.9 3.2
13/09:28pm 11.5 7.8 10.2 92 0.7 S 20 24 11 13 1013.9 1013.9 3.2
13/09:18pm 11.6 8.1 10.2 91 0.7 S 19 24 10 13 1014.0 1014.0 3.2
13/09:00pm 11.5 8.8 10.2 92 0.7 S 15 19 8 10 1014.2 1014.2 3.2
13/08:58pm 11.4 9.0 10.1 92 0.7 S 13 19 7 10 1014.2 1014.2 3.2
13/08:42pm 10.7 8.6 9.6 93 0.6 SSW 11 15 6 8 1014.2 1014.2 3.2
13/08:30pm 10.8 8.3 9.6 92 0.6 S 13 19 7 10 1014.2 1014.2 3.2
13/08:07pm 10.8 8.8 10.2 96 0.3 S 11 15 6 8 1014.6 1014.6 3.2
13/08:00pm 10.6 9.0 10.1 97 0.3 SSW 9 11 5 6 1014.6 1014.6 3.2
13/07:42pm 10.4 9.1 9.9 97 0.3 SSW 7 9 4 5 1014.7 1014.7 3.2
13/07:39pm 10.5 8.8 10.0 97 0.3 SSW 9 9 5 5 1014.7 1014.7 3.2
13/07:30pm 10.6 9.0 10.3 98 0.2 S 9 11 5 6 1014.9 1014.9 3.2
13/07:00pm 10.6 9.0 10.3 98 0.2 SSW 9 13 5 7 1015.0 1015.0 3.2
13/06:47pm 10.6 9.1 10.4 99 0.1 S 9 11 5 6 1015.1 1015.1 3.2
13/06:37pm 10.2 8.5 9.9 98 0.2 SSE 9 11 5 6 1015.1 1015.1 3.2
13/06:30pm 10.3 8.6 10.0 98 0.2 SE 9 11 5 6 1015.2 1015.2 3.2
13/06:00pm 10.5 8.5 10.2 98 0.2 SSE 11 15 6 8 1015.1 1015.1 3.2
13/05:38pm 10.7 8.4 10.4 98 0.2 S 13 17 7 9 1014.9 1014.9 3.2
13/05:30pm 10.6 8.2 10.1 97 0.3 S 13 17 7 9 1015.0 1015.0 3.2
13/05:15pm 11.1 9.3 10.8 98 0.2 SSE 11 15 6 8 1015.1 1015.1 3.2
13/05:00pm 11.3 9.5 11.0 98 0.2 SSE 11 15 6 8 1015.2 1015.2 3.2
13/04:30pm 11.5 9.4 11.0 97 0.3 SSE 13 17 7 9 1015.3 1015.3 3.0
13/04:26pm 11.5 9.4 11.0 97 0.3 S 13 17 7 9 1015.3 1015.3 3.0
13/04:19pm 11.8 10.5 11.3 97 0.3 SSW 9 13 5 7 1015.3 1015.3 3.0
13/04:00pm 11.7 12.1 11.4 98 0.2 CALM 0 0 0 0 1015.3 1015.3 3.0
13/03:58pm 11.7 12.1 11.4 98 0.2 CALM 0 0 0 0 1015.3 1015.3 3.0
13/03:52pm 11.7 12.1 11.4 98 0.2 CALM 0 0 0 0 1015.4 1015.4 2.8
13/03:33pm 11.7 12.1 11.4 98 0.2 CALM 0 0 0 0 1015.7 1015.7 2.8
13/03:30pm 11.6 12.0 11.3 98 0.2 CALM 0 0 0 0 1015.7 1015.7 2.6
13/03:24pm 11.6 12.0 11.3 98 0.2 CALM 0 0 0 0 1015.7 1015.7 2.6
13/03:10pm 11.5 11.9 11.2 98 0.2 CALM 0 0 0 0 1015.9 1015.9 2.2
13/03:01pm 11.5 11.5 11.0 97 0.3 ENE 2 6 1 3 1015.9 1015.9 1.4
13/03:00pm 11.5 11.5 11.0 97 0.3 ENE 2 6 1 3 1016.0 1016.0 1.2
13/02:30pm 11.5 10.1 11.0 97 0.3 SE 9 15 5 8 1015.8 1015.8 0.6
13/02:18pm 11.7 10.4 11.1 96 0.3 SE 9 13 5 7 1015.9 1015.9 0.2
13/02:10pm 11.8 10.5 11.2 96 0.3 SE 9 13 5 7 1016.0 1016.0 0.2
13/02:00pm 11.8 9.7 11.0 95 0.4 SSE 13 17 7 9 1015.9 1015.9 0.2
13/01:55pm 11.9 9.7 10.8 93 0.6 SE 13 20 7 11 1015.9 1015.9 0.0
13/01:47pm 12.2 10.8 10.8 91 0.7 ENE 9 15 5 8 1016.0 1016.0 0.0
13/01:30pm 12.5 11.4 10.0 85 1.3 WSW 6 9 3 5 1016.3 1016.3 0.0
13/01:00pm 13.0 11.8 10.2 83 1.4 ESE 7 11 4 6 1016.6 1016.6 0.0
13/12:30pm 12.8 11.1 9.8 82 1.5 SSE 9 13 5 7 1016.8 1016.8 0.0
13/12:00pm 12.5 11.3 10.2 86 1.2 NW 7 11 4 6 1017.3 1017.3 0.0
13/11:30am 12.2 10.9 10.1 87 1.1 WNW 7 13 4 7 1017.9 1017.9 0.0
13/11:00am 11.4 9.0 10.1 92 0.7 NW 13 15 7 8 1018.2 1018.2 0.0
13/10:30am 10.1 7.1 9.3 95 0.4 NW 15 17 8 9 1018.3 1018.3 0.0
13/10:00am 10.0 7.8 9.2 95 0.4 NW 11 15 6 8 1018.6 1018.6 0.0
13/09:30am 9.2 7.2 8.7 97 0.2 NNW 9 15 5 8 1018.8 1018.8 0.0
13/09:00am 8.4 4.7 7.8 96 0.3 NW 17 19 9 10 1018.8 1018.8 1.8
13/08:30am 8.0 5.4 7.6 97 0.2 NW 11 15 6 8 1019.0 1019.0 1.8
13/08:00am 7.7 5.0 7.4 98 0.1 WNW 11 13 6 7 1019.0 1019.0 1.8
13/07:30am 7.6 5.8 7.3 98 0.1 NW 6 7 3 4 1019.0 1019.0 1.8
13/07:00am 7.3 6.2 7.0 98 0.1 NW 2 7 1 4 1018.9 1018.9 1.8
13/06:30am 7.4 5.4 7.1 98 0.1 NW 7 11 4 6 1018.7 1018.7 1.8
13/06:00am 7.4 5.4 7.1 98 0.1 WNW 7 11 4 6 1018.7 1018.7 1.8
13/05:30am 7.4 4.6 7.1 98 0.1 WNW 11 13 6 7 1018.8 1018.8 1.8
13/05:00am 7.3 4.5 7.0 98 0.1 NW 11 17 6 9 1018.7 1018.7 1.8
13/04:30am 6.8 4.9 6.5 98 0.1 WNW 6 9 3 5 1018.8 1018.8 1.8
13/04:00am 7.0 4.1 6.7 98 0.1 WNW 11 15 6 8 1018.7 1018.7 1.8
13/03:30am 6.7 4.5 6.4 98 0.1 NW 7 11 4 6 1018.9 1018.9 1.8
13/03:03am 6.7 4.5 6.4 98 0.1 WNW 7 13 4 7 1018.9 1018.9 1.8
13/03:00am 6.8 4.9 6.5 98 0.1 NW 6 13 3 7 1018.9 1018.9 1.8
13/02:51am 6.8 4.7 6.5 98 0.1 NW 7 13 4 7 1019.0 1019.0 1.8
13/02:30am 6.8 5.6 6.5 98 0.1 NNW 2 6 1 3 1019.3 1019.3 1.2
13/02:26am 6.8 5.6 6.5 98 0.1 NNW 2 6 1 3 1019.3 1019.3 0.2
13/02:00am 6.6 4.0 6.3 98 0.1 NNW 9 13 5 7 1019.4 1019.4 0.0
13/01:30am 6.5 3.6 6.4 99 0.0 WNW 11 15 6 8 1019.7 1019.7 0.0
13/01:00am 6.2 3.6 6.1 99 0.0 WNW 9 11 5 6 1019.8 1019.8 0.0
13/12:44am 5.1 2.2 4.8 98 0.1 WNW 9 13 5 7 1019.9 1019.9 0.0
13/12:30am 5.1 2.6 4.8 98 0.1 WNW 7 11 4 6 1019.9 1019.9 0.0
13/12:11am 4.9 3.3 4.6 98 0.1 W 2 9 1 5 1019.9 1019.9 0.0
13/12:00am 5.0 3.8 4.6 97 0.2 CALM 0 0 0 0 1020.0 1020.0 0.0
 
Date/Time
EST
Temp
°C
App
Temp
°C
Dew
Point
°C
Rel
Hum
%
Delta-T
°C
Wind Press
QNH
hPa
Press
MSL
hPa
Rain since
9am
mm
Dir  Spd
km/h
Gust
km/h
Spd
kts
Gust
kts
12/11:59pm 5.2 4.0 4.8 97 0.2 CALM 0 0 0 0 1020.0 1020.0 0.0
12/11:56pm 5.3 4.2 4.9 97 0.2 CALM 0 0 0 0 1019.9 1019.9 0.0
12/11:30pm 6.6 4.6 6.3 98 0.1 N 6 7 3 4 1019.8 1019.8 0.0
12/11:00pm 6.8 5.2 6.5 98 0.1 N 4 6 2 3 1019.8 1019.8 0.0
12/10:30pm 6.7 4.8 6.6 99 0.0 N 6 7 3 4 1019.7 1019.7 0.0
12/10:00pm 6.2 5.2 5.8 97 0.2 CALM 0 0 0 0 1019.6 1019.6 0.0
12/09:30pm 6.8 5.1 6.1 95 0.3 WNW 4 7 2 4 1019.6 1019.6 0.0
12/09:00pm 8.8 7.0 8.0 95 0.4 N 7 9 4 5 1019.4 1019.4 0.0
12/08:30pm 9.1 8.0 8.3 95 0.4 ENE 4 9 2 5 1019.1 1019.1 0.0
12/08:00pm 9.5 7.9 7.9 90 0.8 SSE 6 6 3 3 1018.9 1018.9 0.0
12/07:30pm 9.9 8.1 8.0 88 0.9 SSE 7 11 4 6 1018.7 1018.7 0.0
12/07:00pm 10.3 7.8 8.4 88 0.9 S 11 15 6 8 1018.4 1018.4 0.0
12/06:30pm 10.3 8.5 8.1 86 1.1 S 7 11 4 6 1018.0 1018.0 0.0
12/06:00pm 9.5 7.6 7.4 87 1.0 SSW 7 9 4 5 1017.5 1017.5 0.0
12/05:30pm 10.1 7.8 7.3 83 1.3 SSW 9 13 5 7 1016.9 1016.9 0.0
12/05:00pm 10.4 7.0 7.5 82 1.4 S 15 20 8 11 1016.5 1016.5 0.0
12/04:30pm 10.6 7.1 7.3 80 1.6 S 15 19 8 10 1016.1 1016.1 0.0
12/04:00pm 10.6 6.4 7.3 80 1.6 SSE 19 22 10 12 1015.8 1015.8 0.0
12/03:30pm 12.2 8.7 7.3 72 2.4 SSE 15 20 8 11 1015.4 1015.4 0.0
12/03:00pm 11.4 8.3 7.3 76 2.0 SSE 13 17 7 9 1015.1 1015.1 0.0
12/02:30pm 11.3 8.2 7.4 77 1.9 SSE 13 17 7 9 1015.1 1015.1 0.0
12/02:00pm 11.2 7.3 6.9 75 2.0 SE 17 20 9 11 1015.1 1015.1 0.0
12/01:30pm 11.9 8.8 7.4 74 2.2 SE 13 17 7 9 1015.0 1015.0 0.0
12/01:00pm 13.2 12.2 7.4 68 2.8 E 2 13 1 7 1015.1 1015.1 0.0
12/12:30pm 13.9 12.3 6.5 61 3.6 N 4 6 2 3 1015.3 1015.3 0.0
12/12:00pm 13.3 11.3 7.1 66 3.0 N 7 9 4 5 1015.5 1015.5 0.0
12/11:30am 12.7 10.7 7.0 68 2.7 NW 7 13 4 7 1015.4 1015.4 0.0
12/11:00am 11.5 9.1 6.8 73 2.2 WNW 9 13 5 7 1015.3 1015.3 0.0
12/10:30am 9.1 6.9 6.2 82 1.3 W 7 9 4 5 1015.2 1015.2 0.0
12/10:00am 9.7 7.4 5.9 77 1.7 WNW 7 9 4 5 1015.1 1015.1 0.0
12/09:30am 8.4 5.7 5.5 82 1.3 WNW 9 11 5 6 1015.1 1015.1 0.0
12/09:00am 8.2 5.9 5.7 84 1.1 NW 7 9 4 5 1014.8 1014.8 0.0
12/08:30am 6.1 3.5 4.4 89 0.7 N 7 9 4 5 1014.6 1014.6 0.0
12/08:00am 5.5 3.2 4.8 95 0.3 W 6 7 3 4 1014.1 1014.1 0.0
12/07:30am 4.2 2.8 3.8 97 0.2 CALM 0 6 0 3 1013.8 1013.8 0.0
12/07:00am 3.4 0.5 2.8 96 0.2 W 7 9 4 5 1013.4 1013.4 0.0
12/06:30am 3.9 2.4 3.2 95 0.3 CALM 0 0 0 0 1013.0 1013.0 0.0
12/06:00am 5.0 2.4 4.1 94 0.4 NNE 7 11 4 6 1012.5 1012.5 0.0
12/05:30am 4.5 1.4 3.8 95 0.3 WNW 9 11 5 6 1012.1 1012.1 0.0
12/05:00am 4.7 2.0 3.8 94 0.4 NNW 7 9 4 5 1012.0 1012.0 0.0
12/04:30am 4.9 3.5 3.6 91 0.5 CALM 0 0 0 0 1011.6 1011.6 0.0
12/04:00am 6.1 3.7 4.4 89 0.7 SSE 6 7 3 4 1011.4 1011.4 0.0
12/03:30am 7.1 5.9 4.8 85 1.0 CALM 0 4 0 2 1011.3 1011.3 0.0
12/03:00am 8.5 6.0 4.9 78 1.6 N 7 9 4 5 1011.2 1011.2 0.0
12/02:30am 6.9 4.7 5.2 89 0.7 NW 6 11 3 6 1011.1 1011.1 0.0
12/02:00am 6.6 3.3 4.3 85 1.0 NW 11 15 6 8 1011.2 1011.2 0.0
12/01:30am 7.5 4.3 5.0 84 1.1 NW 11 15 6 8 1011.3 1011.3 0.0
12/01:00am 9.0 5.0 5.0 76 1.8 NNW 15 20 8 11 1011.1 1011.1 0.0
12/12:30am 9.4 4.6 5.4 76 1.8 NNW 20 28 11 15 1011.1 1011.1 0.0
12/12:00am 9.4 5.9 5.6 77 1.7 NW 13 19 7 10 1011.0 1011.0 0.0
 
Date/Time
EST
Temp
°C
App
Temp
°C
Dew
Point
°C
Rel
Hum
%
Delta-T
°C
Wind Press
QNH
hPa
Press
MSL
hPa
Rain since
9am
mm
Dir  Spd
km/h
Gust
km/h
Spd
kts
Gust
kts
11/11:30pm 10.3 6.1 5.5 72 2.2 NNW 17 22 9 12 1010.9 1010.9 0.0
11/11:00pm 10.6 6.8 6.0 73 2.1 NW 15 19 8 10 1010.7 1010.7 0.0
11/10:30pm 11.0 7.7 6.2 72 2.2 NNW 13 19 7 10 1010.4 1010.4 0.0
11/10:00pm 11.4 8.1 6.5 72 2.3 NNW 13 19 7 10 1010.5 1010.5 0.0
11/09:30pm 11.7 7.1 6.6 71 2.4 N 20 28 11 15 1010.7 1010.7 0.0
11/09:00pm 12.0 7.6 6.7 70 2.5 N 19 30 10 16 1010.8 1010.8 0.0
11/08:30pm 11.6 7.6 6.5 71 2.4 N 17 22 9 12 1011.2 1011.2 0.0
11/08:00pm 10.1 9.3 8.2 88 0.9 N 2 7 1 4 1011.2 1011.2 0.0
11/07:30pm 10.9 9.8 8.3 84 1.3 N 4 7 2 4 1011.3 1011.3 0.0
11/07:00pm 11.6 9.7 7.7 77 1.9 N 7 11 4 6 1011.2 1011.2 0.0
11/06:30pm 12.0 9.4 7.9 76 2.0 N 11 17 6 9 1011.1 1011.1 0.0
11/06:00pm 12.1 9.2 8.0 76 2.0 N 13 20 7 11 1010.9 1010.9 0.0
11/05:30pm 12.2 10.0 7.9 75 2.1 NNW 9 13 5 7 1011.0 1011.0 0.0
11/05:00pm 12.5 9.9 7.8 73 2.3 N 11 17 6 9 1011.2 1011.2 0.0
11/04:30pm 12.9 10.3 7.8 71 2.5 N 11 17 6 9 1011.4 1011.4 0.0
11/04:00pm 13.2 11.5 7.4 68 2.8 N 6 7 3 4 1011.6 1011.6 0.0
11/03:30pm 13.2 11.1 6.8 65 3.1 NE 7 11 4 6 1011.9 1011.9 0.0
11/03:00pm 13.3 10.8 6.4 63 3.3 ENE 9 13 5 7 1012.3 1012.3 0.0
11/02:30pm 13.1 10.3 5.3 59 3.6 ENE 9 13 5 7 1012.5 1012.5 0.0
11/02:00pm 13.5 9.8 4.6 55 4.1 ENE 13 19 7 10 1012.8 1012.8 0.0
11/01:30pm 12.6 9.0 4.8 59 3.6 NE 13 17 7 9 1013.4 1013.4 0.0
11/01:00pm 11.4 7.7 4.2 61 3.2 NE 13 17 7 9 1014.2 1014.2 0.0
11/12:30pm 11.3 8.6 5.4 67 2.7 NNE 9 13 5 7 1014.9 1014.9 0.0
11/12:00pm 11.1 8.4 5.4 68 2.6 N 9 13 5 7 1015.6 1015.6 0.0
11/11:30am 10.8 6.5 5.3 69 2.5 NNE 17 20 9 11 1016.2 1016.2 0.0
11/11:00am 11.6 8.2 5.7 67 2.7 N 13 17 7 9 1016.5 1016.5 0.0
11/10:30am 10.2 7.7 5.0 70 2.3 N 7 11 4 6 1017.0 1017.0 0.0
11/10:00am 9.5 6.6 4.9 73 2.1 NW 9 13 5 7 1017.4 1017.4 0.0
11/09:30am 6.9 3.4 3.5 79 1.4 NW 11 15 6 8 1018.0 1018.0 0.0
11/09:00am 7.1 4.4 3.9 80 1.4 NW 7 11 4 6 1018.3 1018.3 0.0
11/08:30am 6.0 2.6 4.0 87 0.8 NW 11 13 6 7 1018.8 1018.8 0.0
11/08:00am 3.7 0.0 2.5 92 0.5 WNW 11 13 6 7 1019.0 1019.0 0.0
11/07:30am 3.0 0.0 2.0 93 0.4 W 7 9 4 5 1019.0 1019.0 0.0

Other formats

Comma delimited format used in spreadsheet applications
http://www.bom.gov.au/fwo/IDT60801/IDT60801.94619.axf

JavaScript Object Notation format (JSON) in row-major order
http://www.bom.gov.au/fwo/IDT60801/IDT60801.94619.json

Data quality

Most of these data are generated automatically and are frequently updated. Quality checks on data are not normally performed. It is possible for incorrect values to appear. Refer to information at About Latest Weather Observations and please check the disclaimer before using these data.